sensor_id;sensor_type;location;lat;lon;timestamp;P1;durP1;ratioP1;P2;durP2;ratioP2
76856;SDS011;69705;44.686;37.628;2023-06-19T00:02:14;10.57;;;5.03;;
76856;SDS011;69705;44.686;37.628;2023-06-19T00:04:41;9.73;;;4.93;;
76856;SDS011;69705;44.686;37.628;2023-06-19T00:07:08;11.68;;;4.90;;
76856;SDS011;69705;44.686;37.628;2023-06-19T00:09:35;9.82;;;4.90;;
76856;SDS011;69705;44.686;37.628;2023-06-19T00:12:02;11.20;;;4.95;;
76856;SDS011;69705;44.686;37.628;2023-06-19T00:14:30;10.03;;;4.90;;
76856;SDS011;69705;44.686;37.628;2023-06-19T00:16:57;9.32;;;5.10;;
76856;SDS011;69705;44.686;37.628;2023-06-19T00:19:24;12.32;;;4.97;;
76856;SDS011;69705;44.686;37.628;2023-06-19T00:21:50;10.20;;;5.30;;
76856;SDS011;69705;44.686;37.628;2023-06-19T00:24:17;9.82;;;5.10;;
76856;SDS011;69705;44.686;37.628;2023-06-19T00:26:44;9.82;;;5.05;;
76856;SDS011;69705;44.686;37.628;2023-06-19T00:29:11;9.82;;;4.82;;
76856;SDS011;69705;44.686;37.628;2023-06-19T00:31:38;11.75;;;5.18;;
76856;SDS011;69705;44.686;37.628;2023-06-19T00:34:04;10.52;;;5.25;;
76856;SDS011;69705;44.686;37.628;2023-06-19T00:36:31;13.35;;;5.30;;
76856;SDS011;69705;44.686;37.628;2023-06-19T00:38:58;10.83;;;5.60;;
76856;SDS011;69705;44.686;37.628;2023-06-19T00:41:26;11.73;;;5.57;;
76856;SDS011;69705;44.686;37.628;2023-06-19T00:43:53;9.77;;;5.35;;
76856;SDS011;69705;44.686;37.628;2023-06-19T00:46:20;12.10;;;5.30;;
76856;SDS011;69705;44.686;37.628;2023-06-19T00:48:47;10.63;;;5.03;;
76856;SDS011;69705;44.686;37.628;2023-06-19T00:51:14;10.18;;;5.60;;
76856;SDS011;69705;44.686;37.628;2023-06-19T00:53:41;11.70;;;5.65;;
76856;SDS011;69705;44.686;37.628;2023-06-19T00:56:08;12.25;;;6.20;;
76856;SDS011;69705;44.686;37.628;2023-06-19T00:58:36;12.93;;;5.63;;
76856;SDS011;69705;44.686;37.628;2023-06-19T01:01:02;11.38;;;5.63;;
76856;SDS011;69705;44.686;37.628;2023-06-19T01:03:29;11.48;;;5.90;;
76856;SDS011;69705;44.686;37.628;2023-06-19T01:05:56;13.07;;;5.95;;
76856;SDS011;69705;44.686;37.628;2023-06-19T01:11:30;15.68;;;6.25;;
76856;SDS011;69705;44.686;37.628;2023-06-19T01:14:09;11.52;;;6.00;;
76856;SDS011;69705;44.686;37.628;2023-06-19T01:16:42;11.95;;;5.30;;
76856;SDS011;69705;44.686;37.628;2023-06-19T01:19:10;9.05;;;5.65;;
76856;SDS011;69705;44.686;37.628;2023-06-19T01:21:40;11.98;;;5.70;;
76856;SDS011;69705;44.686;37.628;2023-06-19T01:24:09;10.48;;;5.75;;
76856;SDS011;69705;44.686;37.628;2023-06-19T01:26:35;12.00;;;5.60;;
76856;SDS011;69705;44.686;37.628;2023-06-19T01:29:04;11.60;;;5.95;;
76856;SDS011;69705;44.686;37.628;2023-06-19T01:31:34;11.88;;;5.57;;
76856;SDS011;69705;44.686;37.628;2023-06-19T01:34:11;14.15;;;5.93;;
76856;SDS011;69705;44.686;37.628;2023-06-19T01:36:47;13.23;;;6.30;;
76856;SDS011;69705;44.686;37.628;2023-06-19T01:39:17;11.82;;;5.90;;
76856;SDS011;69705;44.686;37.628;2023-06-19T01:41:45;16.42;;;6.35;;
76856;SDS011;69705;44.686;37.628;2023-06-19T01:44:13;11.98;;;6.20;;
76856;SDS011;69705;44.686;37.628;2023-06-19T01:46:41;11.95;;;6.13;;
76856;SDS011;69705;44.686;37.628;2023-06-19T01:49:08;13.07;;;6.20;;
76856;SDS011;69705;44.686;37.628;2023-06-19T01:51:35;10.13;;;6.10;;
76856;SDS011;69705;44.686;37.628;2023-06-19T01:54:02;11.10;;;5.93;;
76856;SDS011;69705;44.686;37.628;2023-06-19T01:56:31;12.85;;;6.20;;
76856;SDS011;69705;44.686;37.628;2023-06-19T01:58:59;13.63;;;6.32;;
76856;SDS011;69705;44.686;37.628;2023-06-19T02:01:26;13.93;;;6.57;;
76856;SDS011;69705;44.686;37.628;2023-06-19T02:03:53;13.48;;;6.43;;
76856;SDS011;69705;44.686;37.628;2023-06-19T02:06:19;10.32;;;6.28;;
76856;SDS011;69705;44.686;37.628;2023-06-19T02:08:47;11.98;;;6.50;;
76856;SDS011;69705;44.686;37.628;2023-06-19T02:11:14;13.38;;;6.20;;
76856;SDS011;69705;44.686;37.628;2023-06-19T02:13:41;14.88;;;6.78;;
76856;SDS011;69705;44.686;37.628;2023-06-19T02:16:08;10.93;;;6.05;;
76856;SDS011;69705;44.686;37.628;2023-06-19T02:18:35;11.65;;;6.18;;
76856;SDS011;69705;44.686;37.628;2023-06-19T02:21:02;12.07;;;6.60;;
76856;SDS011;69705;44.686;37.628;2023-06-19T02:23:29;11.35;;;6.43;;
76856;SDS011;69705;44.686;37.628;2023-06-19T02:25:55;12.70;;;6.80;;
76856;SDS011;69705;44.686;37.628;2023-06-19T02:28:22;12.63;;;6.35;;
76856;SDS011;69705;44.686;37.628;2023-06-19T02:30:49;11.40;;;6.53;;
76856;SDS011;69705;44.686;37.628;2023-06-19T02:33:17;14.13;;;6.78;;
76856;SDS011;69705;44.686;37.628;2023-06-19T02:35:43;11.68;;;6.95;;
76856;SDS011;69705;44.686;37.628;2023-06-19T02:38:10;10.48;;;6.97;;
76856;SDS011;69705;44.686;37.628;2023-06-19T02:40:38;14.75;;;7.05;;
76856;SDS011;69705;44.686;37.628;2023-06-19T02:43:05;13.80;;;6.90;;
76856;SDS011;69705;44.686;37.628;2023-06-19T02:45:32;12.02;;;6.80;;
76856;SDS011;69705;44.686;37.628;2023-06-19T02:47:59;14.38;;;7.60;;
76856;SDS011;69705;44.686;37.628;2023-06-19T02:50:25;16.30;;;7.20;;
76856;SDS011;69705;44.686;37.628;2023-06-19T02:52:52;13.25;;;6.93;;
76856;SDS011;69705;44.686;37.628;2023-06-19T02:55:20;13.33;;;7.10;;
76856;SDS011;69705;44.686;37.628;2023-06-19T02:57:47;12.45;;;7.10;;
76856;SDS011;69705;44.686;37.628;2023-06-19T03:00:14;13.05;;;6.75;;
76856;SDS011;69705;44.686;37.628;2023-06-19T03:02:43;11.73;;;6.72;;
76856;SDS011;69705;44.686;37.628;2023-06-19T03:05:11;12.55;;;7.20;;
76856;SDS011;69705;44.686;37.628;2023-06-19T03:07:41;12.10;;;6.77;;
76856;SDS011;69705;44.686;37.628;2023-06-19T03:10:09;13.35;;;6.70;;
76856;SDS011;69705;44.686;37.628;2023-06-19T03:12:35;13.02;;;6.72;;
76856;SDS011;69705;44.686;37.628;2023-06-19T03:15:02;11.73;;;6.40;;
76856;SDS011;69705;44.686;37.628;2023-06-19T03:17:32;16.58;;;6.78;;
76856;SDS011;69705;44.686;37.628;2023-06-19T03:19:59;11.35;;;6.10;;
76856;SDS011;69705;44.686;37.628;2023-06-19T03:22:25;13.52;;;6.95;;
76856;SDS011;69705;44.686;37.628;2023-06-19T03:24:52;13.75;;;6.10;;
76856;SDS011;69705;44.686;37.628;2023-06-19T03:27:21;11.27;;;6.40;;
76856;SDS011;69705;44.686;37.628;2023-06-19T03:29:54;11.38;;;6.03;;
76856;SDS011;69705;44.686;37.628;2023-06-19T03:32:30;13.60;;;6.20;;
76856;SDS011;69705;44.686;37.628;2023-06-19T03:34:56;12.43;;;5.93;;
76856;SDS011;69705;44.686;37.628;2023-06-19T03:37:23;12.68;;;6.28;;
76856;SDS011;69705;44.686;37.628;2023-06-19T03:39:50;11.27;;;6.18;;
76856;SDS011;69705;44.686;37.628;2023-06-19T03:42:17;12.38;;;6.10;;
76856;SDS011;69705;44.686;37.628;2023-06-19T03:44:44;10.83;;;6.30;;
76856;SDS011;69705;44.686;37.628;2023-06-19T03:47:11;12.48;;;6.32;;
76856;SDS011;69705;44.686;37.628;2023-06-19T03:49:38;15.65;;;6.32;;
76856;SDS011;69705;44.686;37.628;2023-06-19T03:52:05;14.68;;;6.93;;
76856;SDS011;69705;44.686;37.628;2023-06-19T03:54:31;13.23;;;6.28;;
76856;SDS011;69705;44.686;37.628;2023-06-19T03:56:59;15.07;;;6.23;;
76856;SDS011;69705;44.686;37.628;2023-06-19T03:59:26;15.52;;;6.35;;
76856;SDS011;69705;44.686;37.628;2023-06-19T04:01:53;15.30;;;6.68;;
76856;SDS011;69705;44.686;37.628;2023-06-19T04:04:20;10.23;;;6.22;;
76856;SDS011;69705;44.686;37.628;2023-06-19T04:06:48;12.88;;;6.40;;
76856;SDS011;69705;44.686;37.628;2023-06-19T04:09:14;13.93;;;6.20;;
76856;SDS011;69705;44.686;37.628;2023-06-19T04:11:42;12.93;;;6.07;;
76856;SDS011;69705;44.686;37.628;2023-06-19T04:14:08;15.65;;;6.15;;
76856;SDS011;69705;44.686;37.628;2023-06-19T04:16:36;11.57;;;6.28;;
76856;SDS011;69705;44.686;37.628;2023-06-19T04:19:02;10.50;;;5.88;;
76856;SDS011;69705;44.686;37.628;2023-06-19T04:21:30;11.60;;;6.37;;
76856;SDS011;69705;44.686;37.628;2023-06-19T04:23:57;13.00;;;6.13;;
76856;SDS011;69705;44.686;37.628;2023-06-19T04:26:24;13.77;;;6.07;;
76856;SDS011;69705;44.686;37.628;2023-06-19T04:28:51;11.98;;;5.88;;
76856;SDS011;69705;44.686;37.628;2023-06-19T04:31:18;12.50;;;6.28;;
76856;SDS011;69705;44.686;37.628;2023-06-19T04:33:45;11.13;;;5.35;;
76856;SDS011;69705;44.686;37.628;2023-06-19T04:36:12;16.23;;;6.15;;
76856;SDS011;69705;44.686;37.628;2023-06-19T04:38:40;14.23;;;5.78;;
76856;SDS011;69705;44.686;37.628;2023-06-19T04:41:07;11.98;;;5.93;;
76856;SDS011;69705;44.686;37.628;2023-06-19T04:43:33;14.18;;;5.82;;
76856;SDS011;69705;44.686;37.628;2023-06-19T04:46:00;13.63;;;5.50;;
76856;SDS011;69705;44.686;37.628;2023-06-19T04:48:30;11.43;;;5.45;;
76856;SDS011;69705;44.686;37.628;2023-06-19T04:50:57;10.82;;;5.53;;
76856;SDS011;69705;44.686;37.628;2023-06-19T04:53:27;13.25;;;5.40;;
76856;SDS011;69705;44.686;37.628;2023-06-19T04:55:54;10.38;;;5.55;;
76856;SDS011;69705;44.686;37.628;2023-06-19T04:58:21;11.60;;;5.33;;
76856;SDS011;69705;44.686;37.628;2023-06-19T05:00:48;10.48;;;5.20;;
76856;SDS011;69705;44.686;37.628;2023-06-19T05:03:18;11.13;;;5.65;;
76856;SDS011;69705;44.686;37.628;2023-06-19T05:05:45;12.32;;;5.57;;
76856;SDS011;69705;44.686;37.628;2023-06-19T05:08:12;11.63;;;5.60;;
76856;SDS011;69705;44.686;37.628;2023-06-19T05:10:39;14.03;;;6.00;;
76856;SDS011;69705;44.686;37.628;2023-06-19T05:13:06;13.93;;;7.25;;
76856;SDS011;69705;44.686;37.628;2023-06-19T05:15:32;14.77;;;7.10;;
76856;SDS011;69705;44.686;37.628;2023-06-19T05:17:59;11.63;;;7.03;;
76856;SDS011;69705;44.686;37.628;2023-06-19T05:20:26;13.85;;;7.88;;
76856;SDS011;69705;44.686;37.628;2023-06-19T05:22:53;12.70;;;7.13;;
76856;SDS011;69705;44.686;37.628;2023-06-19T05:25:21;11.55;;;7.72;;
76856;SDS011;69705;44.686;37.628;2023-06-19T05:27:48;13.25;;;7.82;;
76856;SDS011;69705;44.686;37.628;2023-06-19T05:30:14;13.15;;;7.68;;
76856;SDS011;69705;44.686;37.628;2023-06-19T05:32:41;12.20;;;7.72;;
76856;SDS011;69705;44.686;37.628;2023-06-19T05:35:08;14.20;;;8.00;;
76856;SDS011;69705;44.686;37.628;2023-06-19T05:37:35;13.95;;;7.68;;
76856;SDS011;69705;44.686;37.628;2023-06-19T05:40:02;13.88;;;7.72;;
76856;SDS011;69705;44.686;37.628;2023-06-19T05:42:30;16.52;;;8.38;;
76856;SDS011;69705;44.686;37.628;2023-06-19T05:44:56;12.20;;;7.97;;
76856;SDS011;69705;44.686;37.628;2023-06-19T05:47:23;13.43;;;8.37;;
76856;SDS011;69705;44.686;37.628;2023-06-19T05:49:51;12.55;;;8.15;;
76856;SDS011;69705;44.686;37.628;2023-06-19T05:52:18;13.63;;;8.10;;
76856;SDS011;69705;44.686;37.628;2023-06-19T05:54:45;14.02;;;7.35;;
76856;SDS011;69705;44.686;37.628;2023-06-19T05:57:12;13.40;;;7.82;;
76856;SDS011;69705;44.686;37.628;2023-06-19T05:59:39;13.33;;;7.80;;
76856;SDS011;69705;44.686;37.628;2023-06-19T06:02:07;12.05;;;7.57;;
76856;SDS011;69705;44.686;37.628;2023-06-19T06:04:34;15.05;;;7.95;;
76856;SDS011;69705;44.686;37.628;2023-06-19T06:07:02;10.43;;;7.75;;
76856;SDS011;69705;44.686;37.628;2023-06-19T06:09:29;14.15;;;7.90;;
76856;SDS011;69705;44.686;37.628;2023-06-19T06:11:56;14.53;;;8.33;;
76856;SDS011;69705;44.686;37.628;2023-06-19T06:14:23;12.80;;;8.05;;
76856;SDS011;69705;44.686;37.628;2023-06-19T06:16:50;15.20;;;8.00;;
76856;SDS011;69705;44.686;37.628;2023-06-19T06:19:19;14.15;;;7.88;;
76856;SDS011;69705;44.686;37.628;2023-06-19T06:21:49;11.20;;;7.68;;
76856;SDS011;69705;44.686;37.628;2023-06-19T06:24:16;12.70;;;7.70;;
76856;SDS011;69705;44.686;37.628;2023-06-19T06:26:42;14.00;;;7.97;;
76856;SDS011;69705;44.686;37.628;2023-06-19T06:29:09;13.05;;;7.65;;
76856;SDS011;69705;44.686;37.628;2023-06-19T06:31:37;12.43;;;7.65;;
76856;SDS011;69705;44.686;37.628;2023-06-19T06:34:09;11.48;;;7.45;;
76856;SDS011;69705;44.686;37.628;2023-06-19T06:36:37;14.13;;;7.50;;
76856;SDS011;69705;44.686;37.628;2023-06-19T06:39:04;13.00;;;7.38;;
76856;SDS011;69705;44.686;37.628;2023-06-19T06:41:32;11.65;;;7.78;;
76856;SDS011;69705;44.686;37.628;2023-06-19T06:43:59;12.80;;;7.90;;
76856;SDS011;69705;44.686;37.628;2023-06-19T06:46:27;11.25;;;7.50;;
76856;SDS011;69705;44.686;37.628;2023-06-19T06:48:53;11.47;;;7.80;;
76856;SDS011;69705;44.686;37.628;2023-06-19T06:51:20;10.43;;;7.07;;
76856;SDS011;69705;44.686;37.628;2023-06-19T06:53:48;12.55;;;7.85;;
76856;SDS011;69705;44.686;37.628;2023-06-19T06:56:16;12.38;;;7.30;;
76856;SDS011;69705;44.686;37.628;2023-06-19T06:58:43;10.93;;;7.57;;
76856;SDS011;69705;44.686;37.628;2023-06-19T07:01:14;13.77;;;7.40;;
76856;SDS011;69705;44.686;37.628;2023-06-19T07:03:40;12.93;;;7.90;;
76856;SDS011;69705;44.686;37.628;2023-06-19T07:06:07;11.63;;;7.53;;
76856;SDS011;69705;44.686;37.628;2023-06-19T07:08:34;11.52;;;7.30;;
76856;SDS011;69705;44.686;37.628;2023-06-19T07:11:01;12.70;;;7.60;;
76856;SDS011;69705;44.686;37.628;2023-06-19T07:13:27;12.40;;;7.43;;
76856;SDS011;69705;44.686;37.628;2023-06-19T07:15:54;13.40;;;7.40;;
76856;SDS011;69705;44.686;37.628;2023-06-19T07:18:21;15.20;;;7.32;;
76856;SDS011;69705;44.686;37.628;2023-06-19T07:20:48;14.10;;;7.45;;
76856;SDS011;69705;44.686;37.628;2023-06-19T07:23:15;12.07;;;8.00;;
76856;SDS011;69705;44.686;37.628;2023-06-19T07:25:42;13.60;;;7.83;;
76856;SDS011;69705;44.686;37.628;2023-06-19T07:28:08;17.00;;;7.55;;
76856;SDS011;69705;44.686;37.628;2023-06-19T07:30:35;13.15;;;8.00;;
76856;SDS011;69705;44.686;37.628;2023-06-19T07:33:02;13.23;;;8.13;;
76856;SDS011;69705;44.686;37.628;2023-06-19T07:35:29;13.57;;;7.47;;
76856;SDS011;69705;44.686;37.628;2023-06-19T07:37:56;12.20;;;7.70;;
76856;SDS011;69705;44.686;37.628;2023-06-19T07:40:23;13.40;;;7.53;;
76856;SDS011;69705;44.686;37.628;2023-06-19T07:42:49;13.23;;;7.40;;
76856;SDS011;69705;44.686;37.628;2023-06-19T07:45:21;14.52;;;7.78;;
76856;SDS011;69705;44.686;37.628;2023-06-19T07:47:58;12.85;;;8.40;;
76856;SDS011;69705;44.686;37.628;2023-06-19T07:50:25;12.27;;;7.57;;
76856;SDS011;69705;44.686;37.628;2023-06-19T07:52:52;11.90;;;7.50;;
76856;SDS011;69705;44.686;37.628;2023-06-19T07:55:19;12.82;;;7.68;;
76856;SDS011;69705;44.686;37.628;2023-06-19T07:57:46;13.25;;;7.68;;
76856;SDS011;69705;44.686;37.628;2023-06-19T08:00:13;11.98;;;7.50;;
76856;SDS011;69705;44.686;37.628;2023-06-19T08:02:40;12.40;;;7.90;;
76856;SDS011;69705;44.686;37.628;2023-06-19T08:05:08;13.60;;;7.85;;
76856;SDS011;69705;44.686;37.628;2023-06-19T08:07:36;11.25;;;7.20;;
76856;SDS011;69705;44.686;37.628;2023-06-19T08:10:03;10.70;;;7.30;;
76856;SDS011;69705;44.686;37.628;2023-06-19T08:12:30;11.30;;;7.70;;
76856;SDS011;69705;44.686;37.628;2023-06-19T08:14:57;19.40;;;7.77;;
76856;SDS011;69705;44.686;37.628;2023-06-19T08:17:25;13.05;;;7.55;;
76856;SDS011;69705;44.686;37.628;2023-06-19T08:19:52;12.65;;;7.60;;
76856;SDS011;69705;44.686;37.628;2023-06-19T08:22:19;11.90;;;7.95;;
76856;SDS011;69705;44.686;37.628;2023-06-19T08:24:45;11.85;;;7.55;;
76856;SDS011;69705;44.686;37.628;2023-06-19T08:27:12;12.07;;;7.43;;
76856;SDS011;69705;44.686;37.628;2023-06-19T08:29:39;12.98;;;7.90;;
76856;SDS011;69705;44.686;37.628;2023-06-19T08:32:06;11.02;;;7.43;;
76856;SDS011;69705;44.686;37.628;2023-06-19T08:34:35;12.73;;;7.78;;
76856;SDS011;69705;44.686;37.628;2023-06-19T08:37:07;10.73;;;7.15;;
76856;SDS011;69705;44.686;37.628;2023-06-19T08:39:34;11.37;;;6.90;;
76856;SDS011;69705;44.686;37.628;2023-06-19T08:42:06;11.00;;;6.90;;
76856;SDS011;69705;44.686;37.628;2023-06-19T08:44:35;10.82;;;6.75;;
76856;SDS011;69705;44.686;37.628;2023-06-19T08:47:03;14.13;;;7.05;;
76856;SDS011;69705;44.686;37.628;2023-06-19T08:49:31;12.30;;;7.00;;
76856;SDS011;69705;44.686;37.628;2023-06-19T08:52:01;10.60;;;7.10;;
76856;SDS011;69705;44.686;37.628;2023-06-19T08:54:29;12.93;;;6.80;;
76856;SDS011;69705;44.686;37.628;2023-06-19T08:56:59;13.10;;;6.85;;
76856;SDS011;69705;44.686;37.628;2023-06-19T08:59:27;12.30;;;6.93;;
76856;SDS011;69705;44.686;37.628;2023-06-19T09:01:57;11.55;;;6.60;;
76856;SDS011;69705;44.686;37.628;2023-06-19T09:04:28;11.93;;;7.10;;
76856;SDS011;69705;44.686;37.628;2023-06-19T09:07:03;10.55;;;7.00;;
76856;SDS011;69705;44.686;37.628;2023-06-19T09:09:43;11.13;;;6.72;;
76856;SDS011;69705;44.686;37.628;2023-06-19T09:12:14;10.63;;;6.38;;
76856;SDS011;69705;44.686;37.628;2023-06-19T09:14:48;9.32;;;6.50;;
76856;SDS011;69705;44.686;37.628;2023-06-19T09:17:19;30.63;;;21.67;;
76856;SDS011;69705;44.686;37.628;2023-06-19T09:19:47;11.77;;;7.63;;
76856;SDS011;69705;44.686;37.628;2023-06-19T09:22:16;12.18;;;6.57;;
76856;SDS011;69705;44.686;37.628;2023-06-19T09:24:47;10.90;;;6.80;;
76856;SDS011;69705;44.686;37.628;2023-06-19T09:27:15;11.93;;;6.78;;
76856;SDS011;69705;44.686;37.628;2023-06-19T09:29:46;17.73;;;5.30;;
76856;SDS011;69705;44.686;37.628;2023-06-19T09:32:18;9.90;;;4.53;;
76856;SDS011;69705;44.686;37.628;2023-06-19T09:40:44;9.43;;;3.95;;
76856;SDS011;69705;44.686;37.628;2023-06-19T09:46:17;21.10;;;5.80;;
76856;SDS011;69705;44.686;37.628;2023-06-19T09:48:46;12.48;;;4.60;;
76856;SDS011;69705;44.686;37.628;2023-06-19T09:51:17;11.13;;;3.90;;
76856;SDS011;69705;44.686;37.628;2023-06-19T09:53:46;12.48;;;4.15;;
76856;SDS011;69705;44.686;37.628;2023-06-19T09:56:15;9.77;;;3.23;;
76856;SDS011;69705;44.686;37.628;2023-06-19T09:58:42;9.43;;;3.35;;
76856;SDS011;69705;44.686;37.628;2023-06-19T10:01:29;14.43;;;3.88;;
76856;SDS011;69705;44.686;37.628;2023-06-19T10:04:05;18.30;;;3.05;;
76856;SDS011;69705;44.686;37.628;2023-06-19T10:06:42;18.83;;;3.50;;
76856;SDS011;69705;44.686;37.628;2023-06-19T10:09:11;19.00;;;4.17;;
76856;SDS011;69705;44.686;37.628;2023-06-19T10:11:48;36.25;;;5.13;;
76856;SDS011;69705;44.686;37.628;2023-06-19T10:14:21;23.42;;;4.05;;
76856;SDS011;69705;44.686;37.628;2023-06-19T10:16:50;12.43;;;2.60;;
76856;SDS011;69705;44.686;37.628;2023-06-19T10:34:09;17.80;;;4.72;;
76856;SDS011;69705;44.686;37.628;2023-06-19T10:36:38;13.15;;;3.75;;
76856;SDS011;69705;44.686;37.628;2023-06-19T10:39:05;14.00;;;3.40;;
76856;SDS011;69705;44.686;37.628;2023-06-19T10:41:33;13.75;;;3.25;;
76856;SDS011;69705;44.686;37.628;2023-06-19T10:44:01;19.80;;;5.95;;
76856;SDS011;69705;44.686;37.628;2023-06-19T10:46:35;9.82;;;3.15;;
76856;SDS011;69705;44.686;37.628;2023-06-19T10:49:03;9.48;;;3.10;;
76856;SDS011;69705;44.686;37.628;2023-06-19T10:51:33;9.98;;;3.38;;
76856;SDS011;69705;44.686;37.628;2023-06-19T10:54:01;13.00;;;3.55;;
76856;SDS011;69705;44.686;37.628;2023-06-19T10:56:29;10.75;;;3.60;;
76856;SDS011;69705;44.686;37.628;2023-06-19T10:58:56;14.90;;;4.85;;
76856;SDS011;69705;44.686;37.628;2023-06-19T11:01:36;9.80;;;3.50;;
76856;SDS011;69705;44.686;37.628;2023-06-19T11:04:09;10.05;;;3.78;;
76856;SDS011;69705;44.686;37.628;2023-06-19T11:06:37;8.48;;;3.40;;
76856;SDS011;69705;44.686;37.628;2023-06-19T11:09:08;11.50;;;3.50;;
76856;SDS011;69705;44.686;37.628;2023-06-19T11:11:54;10.63;;;3.38;;
76856;SDS011;69705;44.686;37.628;2023-06-19T11:14:21;9.25;;;3.75;;
76856;SDS011;69705;44.686;37.628;2023-06-19T11:16:48;9.02;;;3.00;;
76856;SDS011;69705;44.686;37.628;2023-06-19T11:19:15;8.93;;;3.40;;
76856;SDS011;69705;44.686;37.628;2023-06-19T11:21:47;8.88;;;3.50;;
76856;SDS011;69705;44.686;37.628;2023-06-19T11:24:16;9.10;;;3.17;;
76856;SDS011;69705;44.686;37.628;2023-06-19T11:26:44;9.25;;;3.20;;
76856;SDS011;69705;44.686;37.628;2023-06-19T11:29:31;10.23;;;3.38;;
76856;SDS011;69705;44.686;37.628;2023-06-19T11:32:07;13.43;;;3.58;;
76856;SDS011;69705;44.686;37.628;2023-06-19T11:34:49;10.13;;;3.03;;
76856;SDS011;69705;44.686;37.628;2023-06-19T11:37:16;7.95;;;3.00;;
76856;SDS011;69705;44.686;37.628;2023-06-19T11:39:50;12.60;;;3.00;;
76856;SDS011;69705;44.686;37.628;2023-06-19T11:42:18;11.35;;;3.25;;
76856;SDS011;69705;44.686;37.628;2023-06-19T11:44:55;11.70;;;2.97;;
76856;SDS011;69705;44.686;37.628;2023-06-19T11:47:23;7.38;;;3.30;;
76856;SDS011;69705;44.686;37.628;2023-06-19T11:49:50;8.73;;;3.30;;
76856;SDS011;69705;44.686;37.628;2023-06-19T11:52:17;10.88;;;3.60;;
76856;SDS011;69705;44.686;37.628;2023-06-19T11:54:44;9.20;;;3.13;;
76856;SDS011;69705;44.686;37.628;2023-06-19T11:57:11;9.32;;;3.92;;
76856;SDS011;69705;44.686;37.628;2023-06-19T12:02:30;8.70;;;4.00;;
76856;SDS011;69705;44.686;37.628;2023-06-19T12:04:57;8.45;;;3.78;;
76856;SDS011;69705;44.686;37.628;2023-06-19T12:07:24;9.63;;;3.83;;
76856;SDS011;69705;44.686;37.628;2023-06-19T12:12:38;11.85;;;3.97;;
76856;SDS011;69705;44.686;37.628;2023-06-19T12:15:05;9.93;;;4.00;;
76856;SDS011;69705;44.686;37.628;2023-06-19T12:17:33;8.70;;;3.88;;
76856;SDS011;69705;44.686;37.628;2023-06-19T12:20:00;9.25;;;3.90;;
76856;SDS011;69705;44.686;37.628;2023-06-19T12:22:28;9.80;;;4.03;;
76856;SDS011;69705;44.686;37.628;2023-06-19T12:25:00;10.52;;;4.30;;
76856;SDS011;69705;44.686;37.628;2023-06-19T12:27:27;10.77;;;4.32;;
76856;SDS011;69705;44.686;37.628;2023-06-19T12:29:54;9.60;;;4.50;;
76856;SDS011;69705;44.686;37.628;2023-06-19T12:32:21;11.07;;;4.65;;
76856;SDS011;69705;44.686;37.628;2023-06-19T12:34:49;8.93;;;4.40;;
76856;SDS011;69705;44.686;37.628;2023-06-19T12:37:20;8.57;;;4.60;;
76856;SDS011;69705;44.686;37.628;2023-06-19T12:39:47;8.55;;;4.78;;
76856;SDS011;69705;44.686;37.628;2023-06-19T12:42:16;9.05;;;4.75;;
76856;SDS011;69705;44.686;37.628;2023-06-19T12:44:43;13.07;;;4.93;;
76856;SDS011;69705;44.686;37.628;2023-06-19T12:47:14;11.88;;;4.65;;
76856;SDS011;69705;44.686;37.628;2023-06-19T12:49:43;10.27;;;5.13;;
76856;SDS011;69705;44.686;37.628;2023-06-19T12:52:10;11.20;;;5.13;;
76856;SDS011;69705;44.686;37.628;2023-06-19T12:54:37;10.02;;;5.28;;
76856;SDS011;69705;44.686;37.628;2023-06-19T12:57:05;9.30;;;5.05;;
76856;SDS011;69705;44.686;37.628;2023-06-19T12:59:32;11.32;;;5.15;;
76856;SDS011;69705;44.686;37.628;2023-06-19T13:01:59;11.93;;;5.43;;
76856;SDS011;69705;44.686;37.628;2023-06-19T13:04:26;12.43;;;5.82;;
76856;SDS011;69705;44.686;37.628;2023-06-19T13:06:53;10.57;;;5.32;;
76856;SDS011;69705;44.686;37.628;2023-06-19T13:09:19;11.55;;;5.97;;
76856;SDS011;69705;44.686;37.628;2023-06-19T13:11:46;11.47;;;5.57;;
76856;SDS011;69705;44.686;37.628;2023-06-19T13:14:13;10.05;;;5.38;;
76856;SDS011;69705;44.686;37.628;2023-06-19T13:16:40;9.95;;;5.65;;
76856;SDS011;69705;44.686;37.628;2023-06-19T13:19:07;10.98;;;6.15;;
76856;SDS011;69705;44.686;37.628;2023-06-19T13:21:34;10.88;;;5.72;;
76856;SDS011;69705;44.686;37.628;2023-06-19T13:24:02;10.43;;;5.65;;
76856;SDS011;69705;44.686;37.628;2023-06-19T13:26:29;12.27;;;5.40;;
76856;SDS011;69705;44.686;37.628;2023-06-19T13:28:55;11.45;;;5.78;;
76856;SDS011;69705;44.686;37.628;2023-06-19T13:31:25;9.52;;;5.50;;
76856;SDS011;69705;44.686;37.628;2023-06-19T13:33:51;12.82;;;5.78;;
76856;SDS011;69705;44.686;37.628;2023-06-19T13:36:19;10.53;;;5.50;;
76856;SDS011;69705;44.686;37.628;2023-06-19T13:38:46;11.05;;;5.35;;
76856;SDS011;69705;44.686;37.628;2023-06-19T13:41:13;9.18;;;5.40;;
76856;SDS011;69705;44.686;37.628;2023-06-19T13:43:40;10.32;;;5.47;;
76856;SDS011;69705;44.686;37.628;2023-06-19T13:46:09;10.20;;;5.40;;
76856;SDS011;69705;44.686;37.628;2023-06-19T13:48:36;10.93;;;5.30;;
76856;SDS011;69705;44.686;37.628;2023-06-19T13:51:03;10.50;;;5.25;;
76856;SDS011;69705;44.686;37.628;2023-06-19T13:53:30;12.07;;;6.05;;
76856;SDS011;69705;44.686;37.628;2023-06-19T13:55:58;11.43;;;5.78;;
76856;SDS011;69705;44.686;37.628;2023-06-19T13:58:25;10.93;;;5.70;;
76856;SDS011;69705;44.686;37.628;2023-06-19T14:00:51;11.93;;;6.03;;
76856;SDS011;69705;44.686;37.628;2023-06-19T14:03:18;10.05;;;5.82;;
76856;SDS011;69705;44.686;37.628;2023-06-19T14:05:45;11.57;;;6.10;;
76856;SDS011;69705;44.686;37.628;2023-06-19T14:08:12;10.40;;;5.93;;
76856;SDS011;69705;44.686;37.628;2023-06-19T14:10:39;11.38;;;6.00;;
76856;SDS011;69705;44.686;37.628;2023-06-19T14:13:06;12.43;;;5.97;;
76856;SDS011;69705;44.686;37.628;2023-06-19T14:15:33;12.30;;;6.40;;
76856;SDS011;69705;44.686;37.628;2023-06-19T14:17:59;13.93;;;6.80;;
76856;SDS011;69705;44.686;37.628;2023-06-19T14:20:26;11.45;;;6.57;;
76856;SDS011;69705;44.686;37.628;2023-06-19T14:22:53;11.40;;;6.13;;
76856;SDS011;69705;44.686;37.628;2023-06-19T14:25:20;11.40;;;6.60;;
76856;SDS011;69705;44.686;37.628;2023-06-19T14:27:47;10.38;;;6.13;;
76856;SDS011;69705;44.686;37.628;2023-06-19T14:30:13;11.50;;;7.05;;
76856;SDS011;69705;44.686;37.628;2023-06-19T14:32:40;25.65;;;6.78;;
76856;SDS011;69705;44.686;37.628;2023-06-19T14:35:07;12.57;;;6.97;;
76856;SDS011;69705;44.686;37.628;2023-06-19T14:37:39;11.73;;;7.07;;
76856;SDS011;69705;44.686;37.628;2023-06-19T14:40:07;11.68;;;7.18;;
76856;SDS011;69705;44.686;37.628;2023-06-19T14:42:34;11.45;;;6.80;;
76856;SDS011;69705;44.686;37.628;2023-06-19T14:45:01;17.60;;;7.53;;
76856;SDS011;69705;44.686;37.628;2023-06-19T14:47:28;12.35;;;7.30;;
76856;SDS011;69705;44.686;37.628;2023-06-19T14:49:55;13.47;;;7.07;;
76856;SDS011;69705;44.686;37.628;2023-06-19T14:52:22;9.88;;;6.25;;
76856;SDS011;69705;44.686;37.628;2023-06-19T14:54:49;12.15;;;7.18;;
76856;SDS011;69705;44.686;37.628;2023-06-19T14:57:16;15.07;;;7.32;;
76856;SDS011;69705;44.686;37.628;2023-06-19T14:59:42;13.75;;;7.70;;
76856;SDS011;69705;44.686;37.628;2023-06-19T15:02:10;13.47;;;8.47;;